Time;durP1;ratioP1;P1;durP2;ratioP2;P2;SDS_P1;SDS_P2;PMS_P1;PMS_P2;Temp;Humidity;BMP_temperature;BMP_pressure;BME280_temperature;BME280_humidity;BME280_pressure;Samples;Min_cycle;Max_cycle;Signal;HPM_P1;HPM_P2
2023/03/19 00:00:26;;;;;;;2.17;1.20;;;;;;;-145.50;100.00;65435.88;4912669;29;20095;-70
2023/03/19 00:02:52;;;;;;;4.00;1.40;;;;;;;-145.50;100.00;65435.88;4901852;29;20048;-70
2023/03/19 00:05:19;;;;;;;1.23;1.10;;;;;;;-145.50;100.00;65435.88;4902827;29;20059;-70
2023/03/19 00:07:46;;;;;;;2.35;1.13;;;;;;;-145.50;100.00;65435.88;4911684;29;20062;-71
2023/03/19 00:10:13;;;;;;;2.65;1.40;;;;;;;-145.50;100.00;65435.88;4906926;29;20055;-70
2023/03/19 00:12:39;;;;;;;1.80;1.00;;;;;;;-145.50;100.00;65435.88;4911196;29;20051;-71
2023/03/19 00:15:07;;;;;;;4.15;1.17;;;;;;;-145.50;100.00;65435.88;4906974;29;20048;-71
2023/03/19 00:17:34;;;;;;;3.50;1.38;;;;;;;-145.50;100.00;65435.88;4911398;29;20059;-70
2023/03/19 00:20:01;;;;;;;2.00;1.23;;;;;;;-145.50;100.00;65435.88;4906798;29;20052;-71
2023/03/19 00:22:28;;;;;;;2.85;1.33;;;;;;;-145.50;100.00;65435.88;4912039;29;20131;-71
2023/03/19 00:24:54;;;;;;;2.63;1.45;;;;;;;-145.50;100.00;65435.88;4908463;29;20135;-71
2023/03/19 00:27:20;;;;;;;2.60;1.40;;;;;;;-145.50;100.00;65435.88;4913472;29;20048;-70
2023/03/19 00:29:47;;;;;;;2.58;1.60;;;;;;;-145.50;100.00;65435.88;4911594;29;20059;-70
2023/03/19 00:32:14;;;;;;;2.60;1.30;;;;;;;-145.50;100.00;65435.88;4903634;29;20849;-71
2023/03/19 00:34:41;;;;;;;1.80;1.40;;;;;;;-145.50;100.00;65435.88;4904400;29;20107;-70
2023/03/19 00:37:08;;;;;;;2.78;1.67;;;;;;;-145.50;100.00;65435.88;4915247;29;20428;-70
2023/03/19 00:39:34;;;;;;;4.85;1.60;;;;;;;-145.50;100.00;65435.88;4899107;29;20091;-70
2023/03/19 00:42:01;;;;;;;4.75;1.77;;;;;;;-145.50;100.00;65435.88;4911418;29;20414;-70
2023/03/19 00:44:27;;;;;;;1.70;1.40;;;;;;;-145.50;100.00;65435.88;4906466;29;20108;-70
2023/03/19 00:46:54;;;;;;;2.47;1.65;;;;;;;-145.50;100.00;65435.88;4904778;29;20084;-69
2023/03/19 00:49:21;;;;;;;3.22;1.40;;;;;;;-145.50;100.00;65435.88;4903441;29;20059;-70
2023/03/19 00:51:47;;;;;;;3.90;1.70;;;;;;;-145.50;100.00;65435.88;4905356;29;20052;-70
2023/03/19 00:54:14;;;;;;;2.65;1.40;;;;;;;-145.50;100.00;65435.88;4911925;29;20548;-71
2023/03/19 00:56:40;;;;;;;3.50;1.73;;;;;;;-145.50;100.00;65435.88;4904670;29;20104;-70
2023/03/19 00:59:07;;;;;;;3.22;1.60;;;;;;;-145.50;100.00;65435.88;4910852;29;20055;-70
2023/03/19 01:01:33;;;;;;;2.13;1.40;;;;;;;-145.50;100.00;65435.88;4897084;29;20052;-70
2023/03/19 01:04:00;;;;;;;3.30;1.58;;;;;;;-145.50;100.00;65435.88;4905548;29;20064;-70
2023/03/19 01:06:27;;;;;;;3.13;1.60;;;;;;;-145.50;100.00;65435.88;4906690;29;20048;-71
2023/03/19 01:08:53;;;;;;;3.80;1.45;;;;;;;-145.50;100.00;65435.88;4908772;29;20702;-69
2023/03/19 01:11:20;;;;;;;4.40;1.63;;;;;;;-145.50;100.00;65435.88;4910750;29;20402;-70
2023/03/19 01:13:46;;;;;;;2.08;1.42;;;;;;;-145.50;100.00;65435.88;4905134;29;20058;-69
2023/03/19 01:16:14;;;;;;;1.77;1.45;;;;;;;-145.50;100.00;65435.88;4905647;29;20120;-71
2023/03/19 01:18:41;;;;;;;1.40;1.25;;;;;;;-145.50;100.00;65435.88;4898966;29;20135;-70
2023/03/19 01:21:07;;;;;;;1.40;1.25;;;;;;;-145.50;100.00;65435.88;4911223;29;20067;-70
2023/03/19 01:23:34;;;;;;;2.25;1.52;;;;;;;-145.50;100.00;65435.88;4912546;29;20128;-70
2023/03/19 01:26:00;;;;;;;2.33;1.35;;;;;;;-145.50;100.00;65435.88;4904939;29;20064;-70
2023/03/19 01:28:27;;;;;;;2.08;1.48;;;;;;;-145.50;100.00;65435.88;4906882;29;20060;-70
2023/03/19 01:30:58;;;;;;;1.90;1.33;;;;;;;-145.50;100.00;65435.88;4900152;29;20056;-70
2023/03/19 01:33:25;;;;;;;2.35;1.30;;;;;;;-145.50;100.00;65435.88;4909933;29;20088;-70
2023/03/19 01:35:52;;;;;;;2.67;1.40;;;;;;;-145.50;100.00;65435.88;4903971;29;20108;-70
2023/03/19 01:38:18;;;;;;;2.28;1.30;;;;;;;-145.50;100.00;65435.88;4911153;29;20055;-70
2023/03/19 01:40:46;;;;;;;1.60;1.40;;;;;;;-145.50;100.00;65435.88;4907256;29;20059;-71
2023/03/19 01:43:17;;;;;;;3.22;1.50;;;;;;;-145.50;100.00;65435.88;4905921;29;20157;-70
2023/03/19 01:45:45;;;;;;;2.28;1.38;;;;;;;-145.50;100.00;65435.88;4906002;29;20081;-70
2023/03/19 01:48:25;;;;;;;4.73;1.57;;;;;;;-145.50;100.00;65435.88;4902831;29;20044;-69
2023/03/19 01:50:54;;;;;;;2.70;1.40;;;;;;;-145.50;100.00;65435.88;4900129;29;20506;-69
2023/03/19 01:53:32;;;;;;;3.38;1.65;;;;;;;-145.50;100.00;65435.88;4904060;29;20075;-70
2023/03/19 01:56:05;;;;;;;2.33;1.52;;;;;;;-145.50;100.00;65435.88;4909494;29;20071;-70
2023/03/19 01:58:32;;;;;;;2.30;1.45;;;;;;;-145.50;100.00;65435.88;4898241;29;20100;-71
2023/03/19 02:00:58;;;;;;;2.38;1.80;;;;;;;-145.50;100.00;65435.88;4909037;29;20436;-69
2023/03/19 02:03:26;;;;;;;2.70;1.75;;;;;;;-145.50;100.00;65435.88;4906043;29;20052;-70
2023/03/19 02:05:55;;;;;;;2.53;1.65;;;;;;;-145.50;100.00;65435.88;4904564;29;20139;-69
2023/03/19 02:08:22;;;;;;;5.93;2.13;;;;;;;-145.50;100.00;65435.88;4910532;29;20052;-70
2023/03/19 02:10:51;;;;;;;5.35;2.00;;;;;;;-145.50;100.00;65435.88;4898903;29;20092;-69
2023/03/19 02:13:17;;;;;;;;;;;;;;;-145.50;100.00;65435.88;4911014;29;20063;-69
2023/03/19 02:15:44;;;;;;;3.15;1.90;;;;;;;-145.50;100.00;65435.88;4904679;29;19929;-70
2023/03/19 02:18:11;;;;;;;3.47;2.00;;;;;;;-145.50;100.00;65435.88;4909581;29;20428;-68
2023/03/19 02:21:03;;;;;;;2.42;2.13;;;;;;;-145.50;100.00;65435.88;4910610;29;20392;-68
2023/03/19 02:23:42;;;;;;;4.18;2.40;;;;;;;-145.50;100.00;65435.88;4892229;29;20055;-68
2023/03/19 02:26:14;;;;;;;4.43;2.47;;;;;;;-145.50;100.00;65435.88;4897723;29;20131;-70
2023/03/19 02:28:44;;;;;;;5.57;2.40;;;;;;;-145.50;100.00;65435.88;4904513;29;20056;-69
2023/03/19 02:31:12;;;;;;;5.47;2.75;;;;;;;-145.50;100.00;65435.88;4907403;29;20075;-69
2023/03/19 02:33:39;;;;;;;2.67;2.00;;;;;;;-145.50;100.00;65435.88;4902793;29;20079;-68
2023/03/19 02:36:10;;;;;;;4.15;2.30;;;;;;;-145.50;100.00;65435.88;4909743;29;20067;-68
2023/03/19 02:38:39;;;;;;;4.03;2.22;;;;;;;-145.50;100.00;65435.88;4906134;29;20048;-70
2023/03/19 02:41:08;;;;;;;3.28;2.10;;;;;;;-145.50;100.00;65435.88;4902327;29;20067;-69
2023/03/19 02:43:37;;;;;;;4.18;2.28;;;;;;;-145.50;100.00;65435.88;4909926;29;20052;-68
2023/03/19 02:46:07;;;;;;;3.95;2.13;;;;;;;-145.50;100.00;65435.88;4903013;29;20521;-72
2023/03/19 02:48:33;;;;;;;4.32;2.30;;;;;;;-145.50;100.00;65435.88;4909450;29;20100;-70
2023/03/19 02:51:00;;;;;;;4.07;2.40;;;;;;;-145.50;100.00;65435.88;4902437;29;20075;-69
2023/03/19 02:53:27;;;;;;;4.95;2.50;;;;;;;-145.50;100.00;65435.88;4905191;29;20044;-71
2023/03/19 02:55:53;;;;;;;3.92;2.55;;;;;;;-145.50;100.00;65435.88;4906884;29;20059;-70
2023/03/19 02:58:20;;;;;;;7.35;2.40;;;;;;;-145.50;100.00;65435.88;4908566;29;20055;-70
2023/03/19 03:00:46;;;;;;;4.55;2.70;;;;;;;-145.50;100.00;65435.88;4912943;29;20087;-67
2023/03/19 03:03:13;;;;;;;3.40;2.33;;;;;;;-145.50;100.00;65435.88;4907527;29;20055;-68
2023/03/19 03:05:39;;;;;;;4.55;2.63;;;;;;;-145.50;100.00;65435.88;4913861;29;20059;-69
2023/03/19 03:08:06;;;;;;;5.07;2.50;;;;;;;-145.50;100.00;65435.88;4910043;29;20056;-69
2023/03/19 03:10:32;;;;;;;3.83;2.78;;;;;;;-145.50;100.00;65435.88;4911598;29;20060;-69
2023/03/19 03:13:00;;;;;;;4.13;2.17;;;;;;;-145.50;100.00;65435.88;4918869;29;20063;-70
2023/03/19 03:15:27;;;;;;;4.68;2.42;;;;;;;-145.50;100.00;65435.88;4907516;29;20060;-70
2023/03/19 03:17:55;;;;;;;4.15;2.78;;;;;;;-145.50;100.00;65435.88;4914633;29;20451;-68
2023/03/19 03:20:22;;;;;;;4.78;3.00;;;;;;;-145.50;100.00;65435.88;4904048;29;20055;-70
2023/03/19 03:22:48;;;;;;;6.28;3.00;;;;;;;-145.50;100.00;65435.88;4908811;29;20095;-68
2023/03/19 03:25:15;;;;;;;5.25;3.50;;;;;;;-145.50;100.00;65435.88;4904463;29;20066;-69
2023/03/19 03:27:41;;;;;;;6.10;3.47;;;;;;;-145.50;100.00;65435.88;4910934;29;20457;-69
2023/03/19 03:30:09;;;;;;;5.13;3.20;;;;;;;-145.50;100.00;65435.88;4913638;29;20062;-68
2023/03/19 03:32:37;;;;;;;6.13;2.90;;;;;;;-145.50;100.00;65435.88;4906727;29;20048;-68
2023/03/19 03:35:05;;;;;;;6.95;3.40;;;;;;;-145.50;100.00;65435.88;4909932;29;20083;-69
2023/03/19 03:37:31;;;;;;;4.97;3.33;;;;;;;-145.50;100.00;65435.88;4901819;29;20060;-68
2023/03/19 03:39:58;;;;;;;4.43;3.47;;;;;;;-145.50;100.00;65435.88;4911822;29;20063;-69
2023/03/19 03:42:25;;;;;;;6.15;3.53;;;;;;;-145.50;100.00;65435.88;4906700;29;20135;-68
2023/03/19 03:44:51;;;;;;;6.82;3.78;;;;;;;-145.50;100.00;65435.88;4912194;29;20063;-68
2023/03/19 03:47:18;;;;;;;4.72;3.70;;;;;;;-145.50;100.00;65435.88;4911431;29;20127;-68
2023/03/19 03:49:44;;;;;;;6.10;3.85;;;;;;;-145.50;100.00;65435.88;4902180;29;20047;-69
2023/03/19 03:52:11;;;;;;;6.55;3.75;;;;;;;-145.50;100.00;65435.88;4908843;29;20053;-69
2023/03/19 03:54:37;;;;;;;7.88;4.13;;;;;;;-145.50;100.00;65435.88;4911031;29;20055;-71
2023/03/19 03:57:04;;;;;;;5.53;3.75;;;;;;;-145.50;100.00;65435.88;4910901;29;20060;-69
2023/03/19 03:59:30;;;;;;;5.72;4.13;;;;;;;-145.50;100.00;65435.88;4909994;29;20103;-69
2023/03/19 04:01:57;;;;;;;7.15;4.00;;;;;;;-145.50;100.00;65435.88;4909921;29;20055;-69
2023/03/19 04:04:24;;;;;;;6.13;3.80;;;;;;;-145.50;100.00;65435.88;4905307;29;20056;-70
2023/03/19 04:06:50;;;;;;;6.35;4.20;;;;;;;-145.50;100.00;65435.88;4904931;29;20056;-70
2023/03/19 04:09:17;;;;;;;7.03;4.18;;;;;;;-145.50;100.00;65435.88;4911989;29;20059;-69
2023/03/19 04:11:44;;;;;;;9.55;4.15;;;;;;;-145.50;100.00;65435.88;4905649;29;20052;-69
2023/03/19 04:14:10;;;;;;;6.07;4.03;;;;;;;-145.50;100.00;65435.88;4912837;29;20100;-69
2023/03/19 04:16:37;;;;;;;6.82;4.28;;;;;;;-145.50;100.00;65435.88;4907473;29;20095;-69
2023/03/19 04:19:04;;;;;;;8.25;4.38;;;;;;;-145.50;100.00;65435.88;4902113;29;20067;-70
2023/03/19 04:21:30;;;;;;;6.82;4.45;;;;;;;-145.50;100.00;65435.88;4911810;29;20048;-70
2023/03/19 04:23:57;;;;;;;5.10;3.90;;;;;;;-145.50;100.00;65435.88;4885013;29;20143;-69
2023/03/19 04:26:23;;;;;;;6.53;4.95;;;;;;;-145.50;100.00;65435.88;4911336;29;20052;-70
2023/03/19 04:28:50;;;;;;;6.50;3.72;;;;;;;-145.50;100.00;65435.88;4905964;29;20048;-69
2023/03/19 04:31:17;;;;;;;6.05;4.07;;;;;;;-145.50;100.00;65435.88;4907454;29;20147;-70
2023/03/19 04:33:44;;;;;;;6.38;4.50;;;;;;;-145.50;100.00;65435.88;4907225;29;20434;-70
2023/03/19 04:36:10;;;;;;;6.93;4.25;;;;;;;-145.50;100.00;65435.88;4905108;29;20052;-70
2023/03/19 04:38:37;;;;;;;5.63;4.20;;;;;;;-145.50;100.00;65435.88;4908623;29;20060;-69
2023/03/19 04:41:04;;;;;;;4.45;3.30;;;;;;;-145.50;100.00;65435.88;4902586;29;20063;-70
2023/03/19 04:43:31;;;;;;;8.85;4.70;;;;;;;-145.50;100.00;65435.88;4912190;29;20139;-69
2023/03/19 04:45:57;;;;;;;6.38;4.18;;;;;;;-145.50;100.00;65435.88;4897749;29;20798;-69
2023/03/19 04:48:24;;;;;;;7.95;4.60;;;;;;;-145.50;100.00;65435.88;4910597;29;20056;-69
2023/03/19 04:50:52;;;;;;;7.22;4.53;;;;;;;-145.50;100.00;65435.88;4916422;29;20056;-69
2023/03/19 04:53:22;;;;;;;8.13;4.47;;;;;;;-145.50;100.00;65435.88;4901504;29;20059;-69
2023/03/19 04:55:49;;;;;;;5.68;3.83;;;;;;;-145.50;100.00;65435.88;4910702;29;20052;-69
2023/03/19 04:58:16;;;;;;;7.05;4.60;;;;;;;-145.50;100.00;65435.88;4901096;29;20147;-70
2023/03/19 05:00:45;;;;;;;7.07;5.07;;;;;;;-145.50;100.00;65435.88;4906482;29;20413;-69
2023/03/19 05:03:14;;;;;;;6.38;4.63;;;;;;;-145.50;100.00;65435.88;4906128;29;20803;-68
2023/03/19 05:05:40;;;;;;;9.45;6.10;;;;;;;-145.50;100.00;65435.88;4911651;29;20058;-69
2023/03/19 05:08:08;;;;;;;9.15;5.45;;;;;;;-145.50;100.00;65435.88;4926130;29;20056;-69
2023/03/19 05:10:36;;;;;;;9.45;6.13;;;;;;;-145.50;100.00;65435.88;4905053;29;20052;-69
2023/03/19 05:13:03;;;;;;;9.48;6.07;;;;;;;-145.50;100.00;65435.88;4906463;29;20532;-69
2023/03/19 05:15:30;;;;;;;10.98;6.85;;;;;;;-145.50;100.00;65435.88;4901385;29;20408;-69
2023/03/19 05:17:56;;;;;;;12.15;7.95;;;;;;;-145.50;100.00;65435.88;4924703;29;20048;-70
2023/03/19 05:20:23;;;;;;;10.68;7.10;;;;;;;-145.50;100.00;65435.88;4909959;29;20394;-68
2023/03/19 05:22:51;;;;;;;10.70;7.32;;;;;;;-145.50;100.00;65435.88;4903291;29;20137;-69
2023/03/19 05:25:18;;;;;;;10.93;8.02;;;;;;;-145.50;100.00;65435.88;4909997;29;20059;-69
2023/03/19 05:27:45;;;;;;;10.43;7.30;;;;;;;-145.50;100.00;65435.88;4899603;29;20059;-70
2023/03/19 05:30:11;;;;;;;9.65;7.45;;;;;;;-145.50;100.00;65435.88;4909208;29;20132;-69
2023/03/19 05:32:39;;;;;;;11.23;7.82;;;;;;;-145.50;100.00;65435.88;4904813;29;20084;-69
2023/03/19 05:35:06;;;;;;;12.88;8.88;;;;;;;-145.50;100.00;65435.88;4911294;29;20059;-69
2023/03/19 05:37:33;;;;;;;10.38;8.13;;;;;;;-145.50;100.00;65435.88;4910981;29;20511;-69
2023/03/19 05:39:59;;;;;;;15.00;9.20;;;;;;;-145.50;100.00;65435.88;4900941;29;20070;-69
2023/03/19 05:42:26;;;;;;;12.68;8.85;;;;;;;-145.50;100.00;65435.88;4906707;29;20060;-69
2023/03/19 05:44:52;;;;;;;12.68;8.93;;;;;;;-145.50;100.00;65435.88;4888779;29;20147;-69
2023/03/19 05:47:19;;;;;;;12.80;8.93;;;;;;;-145.50;100.00;65435.88;4910257;29;20077;-69
2023/03/19 05:49:46;;;;;;;15.18;9.63;;;;;;;-145.50;100.00;65435.88;4906074;29;20058;-70
2023/03/19 05:52:12;;;;;;;11.88;8.82;;;;;;;-145.50;100.00;65435.88;4911928;29;20052;-69
2023/03/19 05:54:40;;;;;;;14.60;9.20;;;;;;;-145.50;100.00;65435.88;4906530;29;20047;-69
2023/03/19 05:57:07;;;;;;;11.88;8.45;;;;;;;-145.50;100.00;65435.88;4916783;29;20056;-70
2023/03/19 05:59:33;;;;;;;14.20;9.65;;;;;;;-145.50;100.00;65435.88;4928611;29;20062;-70
2023/03/19 06:02:00;;;;;;;12.52;8.52;;;;;;;-145.50;100.00;65435.88;4906366;29;20072;-69
2023/03/19 06:04:27;;;;;;;15.65;10.23;;;;;;;-145.50;100.00;65435.88;4910923;29;20134;-69
2023/03/19 06:06:53;;;;;;;12.82;8.88;;;;;;;-145.50;100.00;65435.88;4902767;29;20490;-68
2023/03/19 06:09:20;;;;;;;13.10;8.20;;;;;;;-145.50;100.00;65435.88;4904802;29;20143;-70
2023/03/19 06:11:46;;;;;;;12.45;9.10;;;;;;;-145.50;100.00;65435.88;4908779;29;20048;-69
2023/03/19 06:14:13;;;;;;;13.43;8.98;;;;;;;-145.50;100.00;65435.88;4905239;29;20080;-70
2023/03/19 06:16:39;;;;;;;11.82;8.40;;;;;;;-145.50;100.00;65435.88;4910773;29;20064;-69
2023/03/19 06:19:06;;;;;;;11.00;8.68;;;;;;;-145.50;100.00;65435.88;4905502;29;20478;-69
2023/03/19 06:21:32;;;;;;;14.43;8.80;;;;;;;-145.50;100.00;65435.88;4908022;29;20557;-70
2023/03/19 06:23:59;;;;;;;12.93;9.30;;;;;;;-145.50;100.00;65435.88;4896278;29;20051;-69
2023/03/19 06:26:26;;;;;;;16.25;8.95;;;;;;;-145.50;100.00;65435.88;4923919;29;20056;-70
2023/03/19 06:28:53;;;;;;;11.93;9.43;;;;;;;-145.50;100.00;65435.88;4909377;29;20557;-69
2023/03/19 06:31:20;;;;;;;13.43;9.23;;;;;;;-145.50;100.00;65435.88;4918425;29;20083;-68
2023/03/19 06:33:47;;;;;;;12.85;8.98;;;;;;;-145.50;100.00;65435.88;4909056;29;20044;-69
2023/03/19 06:36:16;;;;;;;15.50;9.23;;;;;;;-145.50;100.00;65435.88;4898058;29;20059;-70
2023/03/19 06:38:43;;;;;;;14.10;9.15;;;;;;;-145.50;100.00;65435.88;4905216;29;20135;-69
2023/03/19 06:41:09;;;;;;;13.68;9.27;;;;;;;-145.50;100.00;65435.88;4910326;29;20048;-69
2023/03/19 06:43:36;;;;;;;14.65;8.68;;;;;;;-145.50;100.00;65435.88;4905231;29;20508;-70
2023/03/19 06:46:03;;;;;;;11.27;8.57;;;;;;;-145.50;100.00;65435.88;4909844;29;20143;-69
2023/03/19 06:48:30;;;;;;;12.57;7.97;;;;;;;-145.50;100.00;65435.88;4898110;29;20084;-69
2023/03/19 06:50:57;;;;;;;14.30;8.27;;;;;;;-145.50;100.00;65435.88;4910581;29;20047;-68
2023/03/19 06:53:24;;;;;;;10.15;7.22;;;;;;;-145.50;100.00;65435.88;4892293;29;20048;-68
2023/03/19 06:55:50;;;;;;;11.77;7.70;;;;;;;-145.50;100.00;65435.88;4909408;29;20585;-69
2023/03/19 06:58:17;;;;;;;12.02;7.68;;;;;;;-145.50;100.00;65435.88;4909383;29;20474;-68
2023/03/19 07:00:43;;;;;;;11.02;7.32;;;;;;;-145.50;100.00;65435.88;4902084;29;20099;-69
2023/03/19 07:03:10;;;;;;;10.98;7.63;;;;;;;-145.50;100.00;65435.88;4904033;29;20074;-70
2023/03/19 07:05:37;;;;;;;8.57;6.68;;;;;;;-145.50;100.00;65435.88;4896430;29;20059;-70
2023/03/19 07:08:10;;;;;;;9.75;7.25;;;;;;;-145.50;100.00;65435.88;4914913;29;20059;-69
2023/03/19 07:10:38;;;;;;;14.63;7.43;;;;;;;-145.50;100.00;65435.88;4903266;29;20052;-69
2023/03/19 07:13:05;;;;;;;12.47;7.90;;;;;;;-145.50;100.00;65435.88;4910213;29;20060;-71
2023/03/19 07:15:32;;;;;;;12.55;7.72;;;;;;;-145.50;100.00;65435.88;4911088;29;20493;-69
2023/03/19 07:17:59;;;;;;;9.95;7.00;;;;;;;-145.50;100.00;65435.88;4904816;29;20810;-69
2023/03/19 07:20:25;;;;;;;11.55;7.45;;;;;;;-145.50;100.00;65435.88;4905442;29;20068;-70
2023/03/19 07:22:52;;;;;;;11.52;7.70;;;;;;;-145.50;100.00;65435.88;4904597;29;20171;-70
2023/03/19 07:25:19;;;;;;;10.10;7.03;;;;;;;-145.50;100.00;65435.88;4909806;29;20425;-70
2023/03/19 07:27:46;;;;;;;12.13;7.22;;;;;;;-145.50;100.00;65435.88;4895213;29;20082;-70
2023/03/19 07:30:14;;;;;;;11.05;6.85;;;;;;;-145.50;100.00;65435.88;4910081;29;20618;-70
2023/03/19 07:32:41;;;;;;;9.75;7.18;;;;;;;-145.50;100.00;65435.88;4906019;29;20086;-70
2023/03/19 07:35:09;;;;;;;13.43;7.57;;;;;;;-145.50;100.00;65435.88;4898994;29;20059;-69
2023/03/19 07:37:36;;;;;;;11.02;7.10;;;;;;;-145.50;100.00;65435.88;4909364;29;20087;-69
2023/03/19 07:40:03;;;;;;;10.85;8.27;;;;;;;-145.50;100.00;65435.88;4903426;29;20056;-70
2023/03/19 07:42:30;;;;;;;10.50;7.40;;;;;;;-145.50;100.00;65435.88;4932257;29;20127;-69
2023/03/19 07:44:56;;;;;;;9.85;7.65;;;;;;;-145.50;100.00;65435.88;4905189;29;20044;-70
2023/03/19 07:47:23;;;;;;;11.55;7.93;;;;;;;-145.50;100.00;65435.88;4905676;29;20048;-70
2023/03/19 07:49:55;;;;;;;10.90;7.22;;;;;;;-145.50;100.00;65435.88;4909677;29;20062;-70
2023/03/19 07:52:22;;;;;;;11.00;7.13;;;;;;;-145.50;100.00;65435.88;4905005;29;20048;-70
2023/03/19 07:54:49;;;;;;;9.23;6.95;;;;;;;-145.50;100.00;65435.88;4912939;29;20078;-70
2023/03/19 07:57:16;;;;;;;9.70;7.43;;;;;;;-145.50;100.00;65435.88;4923214;28;20052;-70
2023/03/19 07:59:42;;;;;;;11.80;7.82;;;;;;;-145.50;100.00;65435.88;4909194;29;20603;-71
2023/03/19 08:02:11;;;;;;;12.60;8.35;;;;;;;-145.50;100.00;65435.88;4916283;29;20052;-70
2023/03/19 08:04:38;;;;;;;11.95;8.07;;;;;;;-145.50;100.00;65435.88;4911492;29;20049;-70
2023/03/19 08:07:05;;;;;;;11.90;7.35;;;;;;;-145.50;100.00;65435.88;4926774;29;20553;-70
2023/03/19 08:09:32;;;;;;;9.73;7.10;;;;;;;-145.50;100.00;65435.88;4906520;29;20594;-69
2023/03/19 08:11:59;;;;;;;12.88;7.75;;;;;;;-145.50;100.00;65435.88;4911990;29;20107;-70
2023/03/19 08:14:25;;;;;;;11.48;7.45;;;;;;;-145.50;100.00;65435.88;4901480;29;20394;-70
2023/03/19 08:16:52;;;;;;;10.15;7.20;;;;;;;-145.50;100.00;65435.88;4906565;29;20083;-70
2023/03/19 08:19:19;;;;;;;11.15;7.00;;;;;;;-145.50;100.00;65435.88;4904561;29;20072;-69
2023/03/19 08:21:45;;;;;;;10.73;7.00;;;;;;;-145.50;100.00;65435.88;4910569;29;20055;-70
2023/03/19 08:24:12;;;;;;;10.20;7.45;;;;;;;-145.50;100.00;65435.88;4908563;29;20138;-70
2023/03/19 08:26:38;;;;;;;8.57;6.47;;;;;;;-145.50;100.00;65435.88;4908755;29;20056;-70
2023/03/19 08:29:05;;;;;;;11.43;6.28;;;;;;;-145.50;100.00;65435.88;4909918;29;20515;-70
2023/03/19 08:31:32;;;;;;;11.60;7.50;;;;;;;-145.50;100.00;65435.88;4896860;29;20127;-72
2023/03/19 08:34:03;;;;;;;10.38;6.60;;;;;;;-145.50;100.00;65435.88;4924665;29;20052;-69
2023/03/19 08:36:30;;;;;;;9.85;6.32;;;;;;;-145.50;100.00;65435.88;4920259;29;20056;-69
2023/03/19 08:38:57;;;;;;;12.23;6.10;;;;;;;-145.50;100.00;65435.88;4909718;29;20139;-71
2023/03/19 08:41:27;;;;;;;9.80;6.38;;;;;;;-145.50;100.00;65435.88;4917661;29;20485;-71
2023/03/19 08:43:53;;;;;;;9.10;5.88;;;;;;;-145.50;100.00;65435.88;4898054;28;20048;-73
2023/03/19 08:46:20;;;;;;;10.95;6.32;;;;;;;-145.50;100.00;65435.88;4922852;29;20056;-70
2023/03/19 08:48:46;;;;;;;8.50;5.88;;;;;;;-145.50;100.00;65435.88;4904899;29;20055;-72
2023/03/19 08:51:13;;;;;;;9.65;6.07;;;;;;;-145.50;100.00;65435.88;4911014;29;20063;-68
2023/03/19 08:53:40;;;;;;;9.70;6.28;;;;;;;-145.50;100.00;65435.88;4908660;29;20044;-71
2023/03/19 08:56:07;;;;;;;8.93;6.18;;;;;;;-145.50;100.00;65435.88;4903858;29;20056;-70
2023/03/19 08:58:34;;;;;;;9.18;6.40;;;;;;;-145.50;100.00;65435.88;4903564;29;20733;-69
2023/03/19 09:01:08;;;;;;;9.77;6.88;;;;;;;-145.50;100.00;65435.88;4898089;29;20526;-69
2023/03/19 09:03:36;;;;;;;7.30;5.50;;;;;;;-145.50;100.00;65435.88;4904314;29;20801;-77
2023/03/19 09:06:05;;;;;;;9.73;6.13;;;;;;;-145.50;100.00;65435.88;4903252;29;20060;-70
2023/03/19 09:08:32;;;;;;;;;;;;;;;-145.50;100.00;65435.88;4911316;29;20459;-69
2023/03/19 09:10:58;;;;;;;9.93;5.68;;;;;;;-145.50;100.00;65435.88;4906608;29;20352;-67
2023/03/19 09:13:26;;;;;;;9.10;6.28;;;;;;;-145.50;100.00;65435.88;4897430;29;20056;-69
2023/03/19 09:15:52;;;;;;;8.85;6.50;;;;;;;-145.50;100.00;65435.88;4909964;29;20119;-69
2023/03/19 09:18:19;;;;;;;8.90;6.45;;;;;;;-145.50;100.00;65435.88;4907008;29;20056;-69
2023/03/19 09:20:46;;;;;;;10.48;7.45;;;;;;;-145.50;100.00;65435.88;4891638;29;20072;-70
2023/03/19 09:23:13;;;;;;;10.63;6.72;;;;;;;-145.50;100.00;65435.88;4905124;29;20055;-69
2023/03/19 09:25:40;;;;;;;11.82;7.65;;;;;;;-145.50;100.00;65435.88;4900296;29;20048;-71
2023/03/19 09:28:06;;;;;;;9.95;7.20;;;;;;;-145.50;100.00;65435.88;4905521;29;20841;-70
2023/03/19 09:30:33;;;;;;;9.65;6.97;;;;;;;-145.50;100.00;65435.88;4914920;29;20057;-70
2023/03/19 09:33:00;;;;;;;9.88;7.93;;;;;;;-145.50;100.00;65435.88;4909537;29;20047;-70
2023/03/19 09:35:30;;;;;;;10.82;7.47;;;;;;;-145.50;100.00;65435.88;4901652;29;20056;-70
2023/03/19 09:37:57;;;;;;;10.48;7.68;;;;;;;-145.50;100.00;65435.88;4909001;29;20116;-71
2023/03/19 09:40:26;;;;;;;12.93;9.63;;;;;;;-145.50;100.00;65435.88;4903098;29;20803;-71
2023/03/19 09:43:11;;;;;;;12.23;9.60;;;;;;;-145.50;100.00;65435.88;4896796;29;20056;-70
2023/03/19 09:45:38;;;;;;;13.23;10.07;;;;;;;-145.50;100.00;65435.88;4911546;29;20056;-69
2023/03/19 09:48:12;;;;;;;11.13;9.25;;;;;;;-145.50;100.00;65435.88;4902227;29;20508;-70
2023/03/19 09:50:39;;;;;;;14.02;10.43;;;;;;;-145.50;100.00;65435.88;4908467;29;20059;-70
2023/03/19 09:53:17;;;;;;;12.88;9.27;;;;;;;-145.50;100.00;65435.88;4901883;29;20099;-71
2023/03/19 09:55:50;;;;;;;12.88;9.88;;;;;;;-145.50;100.00;65435.88;4903501;29;20047;-69
2023/03/19 09:58:21;;;;;;;14.93;10.68;;;;;;;-145.50;100.00;65435.88;4902722;29;20071;-69
2023/03/19 10:00:49;;;;;;;13.90;10.20;;;;;;;-145.50;100.00;65435.88;4904548;29;20056;-70
2023/03/19 10:03:44;;;;;;;13.82;10.30;;;;;;;-145.50;100.00;65435.88;4908770;29;20533;-69
2023/03/19 10:06:53;;;;;;;17.80;11.73;;;;;;;-145.50;100.00;65435.88;4906003;29;20570;-69
2023/03/19 10:09:54;;;;;;;16.63;10.52;;;;;;;-145.50;100.00;65435.88;4825551;29;20058;-70
2023/03/19 10:12:40;;;;;;;11.70;10.50;;;;;;;-145.50;100.00;65435.88;4835825;29;20221;-69
2023/03/19 10:15:37;;;;;;;13.95;10.80;;;;;;;-145.50;100.00;65435.88;4826320;29;20096;-70
2023/03/19 10:18:19;;;;;;;14.40;10.43;;;;;;;-145.50;100.00;65435.88;4814158;29;20061;-70
2023/03/19 10:20:48;;;;;;;18.13;12.23;;;;;;;-145.50;100.00;65435.88;4821892;29;20106;-70
2023/03/19 10:23:33;;;;;;;16.00;11.95;;;;;;;-145.50;100.00;65435.88;4830212;29;20066;-70
2023/03/19 10:26:03;;;;;;;13.05;10.95;;;;;;;-145.50;100.00;65435.88;4830982;29;20650;-69
2023/03/19 10:28:30;;;;;;;15.82;11.45;;;;;;;-145.50;100.00;65435.88;4829589;29;20114;-69
2023/03/19 10:31:12;;;;;;;15.57;12.85;;;;;;;-145.50;100.00;65435.88;4831430;29;20064;-70
2023/03/19 10:34:01;;;;;;;15.55;11.07;;;;;;;-145.50;100.00;65435.88;4822950;29;20066;-70
2023/03/19 10:36:32;;;;;;;;;;;;;;;-145.50;100.00;65435.88;4823460;29;20058;-69
2023/03/19 10:38:58;;;;;;;17.33;15.00;;;;;;;-145.50;100.00;65435.88;4827532;29;19928;-70
2023/03/19 10:41:28;;;;;;;17.15;13.68;;;;;;;-145.50;100.00;65435.88;4911797;29;20267;-70
2023/03/19 10:44:00;;;;;;;20.63;15.55;;;;;;;-145.50;100.00;65435.88;4905363;29;20131;-71
2023/03/19 10:46:26;;;;;;;19.55;13.98;;;;;;;-145.50;100.00;65435.88;4904987;29;20142;-70
2023/03/19 10:48:53;;;;;;;19.92;13.90;;;;;;;-145.50;100.00;65435.88;4904628;29;20060;-68
2023/03/19 10:51:25;;;;;;;17.40;13.63;;;;;;;-145.50;100.00;65435.88;4898137;29;20056;-68
2023/03/19 10:53:54;;;;;;;17.88;13.27;;;;;;;-145.50;100.00;65435.88;4907655;29;20071;-68
2023/03/19 10:56:28;;;;;;;14.27;10.18;;;;;;;-145.50;100.00;65435.88;4902594;29;20060;-68
2023/03/19 10:59:00;;;;;;;10.93;9.65;;;;;;;-145.50;100.00;65435.88;4908405;29;20060;-70
2023/03/19 11:01:34;;;;;;;19.92;14.40;;;;;;;-145.50;100.00;65435.88;4900414;29;20056;-69
2023/03/19 11:04:12;;;;;;;17.33;14.35;;;;;;;-145.50;100.00;65435.88;4902738;29;20052;-69
2023/03/19 11:06:39;;;;;;;18.40;14.48;;;;;;;-145.50;100.00;65435.88;4891564;29;20518;-68
2023/03/19 11:09:09;;;;;;;18.45;13.27;;;;;;;-145.50;100.00;65435.88;4902133;29;20656;-68
2023/03/19 11:11:41;;;;;;;16.30;12.18;;;;;;;-145.50;100.00;65435.88;4908283;29;20111;-68